Latest Weather Observations for Moruya Airport

IDN60801

Issued at 7:33 pm EST Sunday 26 June 2016 (issued every 30 minutes, with the page automatically refreshed every 10 minutes)

About weather observations | Map of weather stations | Latest weather observations for NSW | Other Formats
Station Details ID: 069148 Name: MORUYA AIRPORT AWS Lat: -35.90 Lon: 150.14 Height: 4.0 m
Data from the previous 72 hours. | See also: Recent months at Moruya Airport
Date/Time
EST
Temp
°C
App
Temp
°C
Dew
Point
°C
Rel
Hum
%
Delta-T
°C
Wind Press
QNH
hPa
Press
MSL
hPa
Rain since
9am
mm
Dir  Spd
km/h
Gust
km/h
Spd
kts
Gust
kts
26/07:30pm 6.1 3.8 4.7 91 0.6 W 6 7 3 4 1016.8 1016.8 0.0
26/07:00pm 7.2 5.1 5.8 91 0.6 W 6 7 3 4 1016.6 1016.6 0.0
26/06:30pm 7.7 5.5 6.2 90 0.7 WNW 7 9 4 5 1016.6 1016.6 0.0
26/06:00pm 8.0 7.2 6.3 89 0.8 CALM 0 0 0 0 1016.3 1016.3 0.0
26/05:30pm 9.1 7.1 7.1 87 0.9 NW 7 9 4 5 1016.2 1016.2 0.0
26/05:00pm 10.5 8.7 7.9 84 1.3 NW 7 9 4 5 1016.2 1016.2 0.0
26/04:30pm 12.2 10.5 7.7 74 2.2 NNW 6 7 3 4 1016.1 1016.1 0.0
26/04:00pm 13.6 11.5 6.7 63 3.3 NNW 7 9 4 5 1016.2 1016.2 0.0
26/03:30pm 13.9 12.8 6.7 62 3.5 NW 2 7 1 4 1016.2 1016.2 0.0
26/03:00pm 14.0 13.1 5.9 58 3.8 CALM 0 0 0 0 1016.7 1016.7 0.0
26/02:30pm 14.2 13.0 4.8 53 4.4 CALM 0 0 0 0 1016.8 1016.8 0.0
26/02:00pm 14.4 13.2 4.7 52 4.5 CALM 0 0 0 0 1016.9 1016.9 0.0
26/01:30pm 14.2 11.9 4.8 53 4.4 W 6 7 3 4 1017.2 1017.2 0.0
26/01:00pm 14.4 12.0 4.4 51 4.6 WNW 6 9 3 5 1017.2 1017.2 0.0
26/12:30pm 15.1 12.8 5.0 51 4.7 W 6 9 3 5 1017.5 1017.5 0.0
26/12:00pm 14.0 11.0 4.3 52 4.4 SW 9 11 5 6 1018.4 1018.4 0.0
26/11:30am 14.1 11.2 4.4 52 4.5 SW 9 13 5 7 1019.1 1019.1 0.0
26/11:00am 13.9 11.0 4.5 53 4.3 WSW 9 15 5 8 1019.6 1019.6 0.0
26/10:30am 12.6 9.6 4.3 57 3.8 WSW 9 15 5 8 1020.1 1020.1 0.0
26/10:00am 12.1 8.9 3.3 55 3.9 WSW 9 13 5 7 1020.4 1020.4 0.0
26/09:30am 11.7 8.6 3.7 58 3.6 WSW 9 13 5 7 1020.2 1020.2 0.0
26/09:00am 9.7 6.4 2.6 61 3.0 WSW 9 15 5 8 1020.1 1020.1 0.0
26/08:30am 8.4 5.0 2.0 64 2.7 WSW 9 13 5 7 1019.9 1019.9 0.0
26/08:00am 6.6 3.6 1.7 71 2.0 W 7 9 4 5 1020.0 1020.0 0.0
26/07:30am 4.7 1.2 1.0 77 1.4 WSW 9 11 5 6 1019.9 1019.9 0.0
26/07:00am 5.4 1.8 0.8 72 1.8 W 9 11 5 6 1019.8 1019.8 0.0
26/06:30am 6.1 2.2 0.9 69 2.0 WSW 11 17 6 9 1019.5 1019.5 0.0
26/06:00am 6.1 2.2 0.9 69 2.0 W 11 15 6 8 1019.4 1019.4 0.0
26/05:30am 6.2 2.3 0.9 69 2.1 W 11 19 6 10 1019.2 1019.2 0.0
26/05:00am 6.3 1.9 0.6 67 2.2 W 13 17 7 9 1019.1 1019.1 0.0
26/04:30am 5.7 1.7 0.7 70 1.9 WSW 11 15 6 8 1019.0 1019.0 0.0
26/04:00am 6.0 2.0 0.8 69 2.0 W 11 17 6 9 1019.1 1019.1 0.0
26/03:30am 5.4 1.4 0.8 72 1.8 W 11 15 6 8 1019.3 1019.3 0.0
26/03:00am 5.1 1.6 1.0 75 1.6 W 9 13 5 7 1019.4 1019.4 0.0
26/02:30am 5.5 1.9 0.9 72 1.8 W 9 13 5 7 1019.7 1019.7 0.0
26/02:00am 5.6 2.0 0.8 71 1.9 W 9 15 5 8 1019.7 1019.7 0.0
26/01:30am 4.9 1.3 0.9 75 1.6 W 9 13 5 7 1019.8 1019.8 0.0
26/01:00am 4.4 1.4 0.6 76 1.5 WNW 6 7 3 4 1019.5 1019.5 0.0
26/12:30am 5.9 2.3 0.3 67 2.2 W 9 13 5 7 1019.5 1019.5 0.0
26/12:00am 5.7 2.1 0.3 68 2.1 W 9 13 5 7 1019.5 1019.5 0.0
 
Date/Time
EST
Temp
°C
App
Temp
°C
Dew
Point
°C
Rel
Hum
%
Delta-T
°C
Wind Press
QNH
hPa
Press
MSL
hPa
Rain since
9am
mm
Dir  Spd
km/h
Gust
km/h
Spd
kts
Gust
kts
25/11:30pm 5.3 1.3 0.5 71 1.9 W 11 15 6 8 1019.9 1019.9 0.0
25/11:00pm 4.8 1.2 0.4 73 1.7 W 9 13 5 7 1020.3 1020.3 0.0
25/10:30pm 5.0 1.3 0.2 71 1.8 W 9 13 5 7 1020.2 1020.2 0.0
25/10:00pm 4.6 1.0 0.7 76 1.5 W 9 11 5 6 1020.2 1020.2 0.0
25/09:30pm 4.4 0.8 0.9 78 1.4 NW 9 11 5 6 1020.3 1020.3 0.0
25/09:00pm 4.1 1.1 0.8 79 1.3 W 6 7 3 4 1020.4 1020.4 0.0
25/08:30pm 4.7 1.6 1.4 79 1.3 W 7 13 4 7 1020.3 1020.3 0.0
25/08:00pm 4.2 0.6 0.7 78 1.3 WSW 9 11 5 6 1020.3 1020.3 0.0
25/07:30pm 4.1 0.4 -0.3 73 1.6 W 9 11 5 6 1020.4 1020.4 0.0
25/07:00pm 5.8 2.6 0.8 70 1.9 WSW 7 9 4 5 1020.4 1020.4 0.0
25/06:30pm 6.4 3.3 1.1 69 2.1 WSW 7 11 4 6 1020.0 1020.0 0.0
25/06:00pm 6.8 3.6 0.9 66 2.3 SW 7 7 4 4 1019.8 1019.8 0.0
25/05:30pm 8.4 5.4 0.6 58 3.1 WSW 6 7 3 4 1019.4 1019.4 0.0
25/05:00pm 9.4 5.7 -0.2 51 3.8 WSW 9 13 5 7 1019.0 1019.0 0.0
25/04:30pm 11.3 7.5 -0.5 44 4.7 WSW 9 15 5 8 1018.7 1018.7 0.0
25/04:00pm 13.0 8.5 -0.6 39 5.5 SW 13 20 7 11 1018.4 1018.4 0.0
25/03:30pm 13.7 8.1 -0.3 38 5.8 SW 19 30 10 16 1018.1 1018.1 0.0
25/03:00pm 14.2 8.8 -1.0 35 6.2 SW 17 24 9 13 1018.1 1018.1 0.0
25/02:30pm 14.2 7.5 -1.4 34 6.3 SW 24 35 13 19 1017.7 1017.7 0.0
25/02:00pm 14.1 7.7 -1.9 33 6.4 SW 22 32 12 17 1017.4 1017.4 0.0
25/01:30pm 14.4 8.5 -0.5 36 6.2 WSW 20 30 11 16 1017.4 1017.4 0.0
25/01:00pm 14.0 8.2 -1.6 34 6.3 SW 19 28 10 15 1017.7 1017.7 0.0
25/12:30pm 13.7 7.8 -1.9 34 6.2 WSW 19 33 10 18 1017.9 1017.9 0.0
25/12:00pm 13.7 6.6 -1.5 35 6.1 SW 26 39 14 21 1017.9 1017.9 0.0
25/11:30am 13.1 7.0 -2.4 34 6.1 WSW 20 33 11 18 1018.1 1018.1 0.0
25/11:00am 13.0 7.2 -1.3 37 5.7 WSW 19 32 10 17 1018.1 1018.1 0.0
25/10:30am 12.3 5.9 -2.0 37 5.6 WSW 22 33 12 18 1018.1 1018.1 0.0
25/10:00am 11.7 4.9 -2.1 38 5.4 SW 24 35 13 19 1018.0 1018.0 0.0
25/09:30am 11.5 6.1 -1.3 41 5.1 WSW 17 24 9 13 1017.8 1017.8 0.0
25/09:00am 10.5 5.0 -1.9 42 4.8 WSW 17 24 9 13 1017.4 1017.4 0.0
25/08:30am 9.8 5.4 -2.2 43 4.6 WSW 11 20 6 11 1017.3 1017.3 0.0
25/08:00am 8.8 4.4 -2.2 46 4.1 WSW 11 17 6 9 1017.1 1017.1 0.0
25/07:30am 8.4 3.2 -2.8 45 4.1 WSW 15 20 8 11 1016.5 1016.5 0.0
25/07:00am 8.5 2.9 -2.7 45 4.1 WSW 17 22 9 12 1016.2 1016.2 0.0
25/06:30am 8.2 3.0 -2.7 46 4.0 WSW 15 24 8 13 1016.0 1016.0 0.0
25/06:00am 7.5 2.6 -3.1 47 3.8 WSW 13 22 7 12 1015.8 1015.8 0.0
25/05:30am 8.2 3.3 -3.3 44 4.2 WSW 13 20 7 11 1015.0 1015.0 0.0
25/05:00am 8.3 3.4 -3.2 44 4.2 WSW 13 22 7 12 1014.7 1014.7 0.0
25/04:30am 8.8 2.8 -3.1 43 4.4 WSW 19 32 10 17 1014.1 1014.1 0.0
25/04:00am 8.9 2.7 -3.3 42 4.5 WSW 20 35 11 19 1013.9 1013.9 0.0
25/03:30am 9.0 2.8 -3.2 42 4.5 WSW 20 35 11 19 1013.6 1013.6 0.0
25/03:00am 8.7 3.0 -3.5 42 4.4 WSW 17 28 9 15 1013.2 1013.2 0.0
25/02:30am 8.9 3.3 -3.3 42 4.5 WSW 17 30 9 16 1012.7 1012.7 0.0
25/02:00am 7.9 3.8 -3.3 45 4.1 W 9 17 5 9 1012.3 1012.3 0.0
25/01:30am 8.3 3.8 -2.9 45 4.1 WSW 11 22 6 12 1011.9 1011.9 0.0
25/01:00am 9.2 3.2 -3.0 42 4.5 WSW 19 30 10 16 1011.6 1011.6 0.0
25/12:30am 8.7 3.5 -2.6 45 4.2 W 15 26 8 14 1011.1 1011.1 0.0
25/12:00am 9.2 4.4 -2.7 43 4.4 WSW 13 28 7 15 1010.7 1010.7 0.0
 
Date/Time
EST
Temp
°C
App
Temp
°C
Dew
Point
°C
Rel
Hum
%
Delta-T
°C
Wind Press
QNH
hPa
Press
MSL
hPa
Rain since
9am
mm
Dir  Spd
km/h
Gust
km/h
Spd
kts
Gust
kts
24/11:30pm 9.9 4.3 -2.7 41 4.7 WSW 17 28 9 15 1010.6 1010.6 0.0
24/11:00pm 9.7 4.6 -1.9 44 4.4 W 15 26 8 14 1010.3 1010.3 0.0
24/10:30pm 9.3 4.3 -1.4 47 4.1 SW 15 32 8 17 1010.2 1010.2 0.0
24/10:00pm 9.8 4.0 -1.3 46 4.3 SW 19 26 10 14 1009.8 1009.8 0.0
24/09:30pm 9.8 5.1 -1.6 45 4.4 WSW 13 20 7 11 1009.4 1009.4 0.0
24/09:00pm 9.3 4.7 -1.1 48 4.0 WSW 13 17 7 9 1008.8 1008.8 0.0
24/08:30pm 8.1 4.4 0.1 57 3.2 WSW 9 9 5 5 1008.2 1008.2 0.0
24/08:00pm 8.5 4.5 0.2 56 3.3 WSW 11 20 6 11 1007.6 1007.6 0.0
24/07:30pm 8.2 4.8 1.8 64 2.6 WSW 9 13 5 7 1006.6 1006.6 0.0
24/07:00pm 9.2 5.0 1.9 60 3.1 SW 13 19 7 10 1005.9 1005.9 0.0
24/06:30pm 10.0 5.8 -1.1 46 4.3 SW 11 15 6 8 1005.3 1005.3 0.0
24/06:00pm 11.2 6.1 -1.9 40 5.1 W 15 22 8 12 1004.2 1004.2 0.0
24/05:30pm 11.7 7.0 -2.1 38 5.4 W 13 22 7 12 1003.6 1003.6 0.0
24/05:00pm 12.0 7.3 -1.5 39 5.4 WNW 13 20 7 11 1002.9 1002.9 0.0
24/04:30pm 12.5 8.2 -1.4 38 5.5 W 11 24 6 13 1002.3 1002.3 0.0
24/04:00pm 13.8 9.6 -0.6 37 6.0 WNW 11 17 6 9 1001.9 1001.9 0.0
24/03:30pm 14.9 10.3 -1.2 33 6.6 W 13 19 7 10 1001.4 1001.4 0.0
24/03:00pm 15.1 10.1 -1.0 33 6.7 W 15 24 8 13 1001.0 1000.9 0.0
24/02:30pm 14.8 11.3 1.0 39 5.9 SW 9 15 5 8 1000.5 1000.4 0.0
24/02:00pm 14.9 10.9 0.7 38 6.1 NW 11 17 6 9 1000.0 999.9 0.0
24/01:30pm 15.7 11.7 0.7 36 6.5 WNW 11 17 6 9 1000.0 999.9 0.0
24/01:00pm 14.1 9.8 1.1 41 5.6 NW 13 22 7 12 1000.0 999.9 0.0
24/12:30pm 14.0 9.7 1.0 41 5.6 NW 13 20 7 11 1000.2 1000.1 0.0
24/12:00pm 14.9 10.3 1.8 41 5.8 NW 15 26 8 14 1000.1 1000.0 0.0
24/11:30am 14.0 8.4 1.3 42 5.5 WNW 20 35 11 19 1000.4 1000.3 0.0
24/11:00am 14.6 8.7 1.8 42 5.6 NW 22 33 12 18 1000.9 1000.8 0.0
24/10:30am 14.6 9.8 2.5 44 5.4 NNW 17 28 9 15 1001.0 1000.9 0.0
24/10:00am 14.5 10.1 2.7 45 5.3 NNW 15 22 8 12 1001.1 1001.0 0.0
24/09:30am 14.4 11.6 2.9 46 5.1 N 7 19 4 10 1001.1 1001.0 0.0
24/09:00am 13.8 11.3 3.6 50 4.6 WSW 6 11 3 6 1001.0 1000.9 0.0
24/08:30am 11.2 9.7 5.1 66 2.8 NNW 2 7 1 4 1000.7 1000.6 0.0
24/08:00am 9.7 6.5 2.8 62 3.0 NNW 9 11 5 6 1000.2 1000.1 0.0
24/07:30am 11.9 7.1 2.4 52 4.1 WSW 17 20 9 11 999.9 999.8 0.0
24/07:00am 11.3 7.3 3.1 57 3.6 WSW 13 24 7 13 999.6 999.5 0.0
24/06:30am 11.6 7.8 3.9 59 3.4 W 13 20 7 11 999.5 999.4 0.0
24/06:00am 9.7 7.3 4.1 68 2.5 W 6 9 3 5 999.3 999.2 0.0
24/05:30am 11.6 8.9 3.6 58 3.5 NW 7 11 4 6 998.8 998.7 0.0
24/05:00am 11.3 8.8 3.6 59 3.4 NNW 6 11 3 6 998.4 998.3 0.0
24/04:30am 11.3 8.7 4.3 62 3.1 N 7 13 4 7 998.4 998.3 0.0
24/04:00am 9.4 6.4 4.2 70 2.3 N 9 11 5 6 998.5 998.4 0.0
24/03:30am 12.0 10.6 3.3 55 3.8 CALM 0 7 0 4 998.4 998.3 0.0
24/03:00am 13.8 9.7 4.1 52 4.5 N 15 24 8 13 998.0 997.9 0.0
24/02:30am 14.8 10.3 4.2 49 4.9 NW 17 39 9 21 997.5 997.4 0.0
24/02:00am 15.2 11.2 4.9 50 4.9 NW 15 26 8 14 998.1 998.0 0.0
24/01:30am 14.9 11.1 6.0 55 4.3 NNW 15 32 8 17 998.0 997.9 0.0
24/01:00am 13.9 9.6 7.2 64 3.3 N 19 24 10 13 998.0 997.9 0.0
24/12:30am 14.5 11.3 8.5 67 3.0 NNE 15 19 8 10 998.7 998.6 0.0
24/12:00am 14.2 10.4 7.5 64 3.3 NNE 17 20 9 11 999.2 999.1 0.0
 
Date/Time
EST
Temp
°C
App
Temp
°C
Dew
Point
°C
Rel
Hum
%
Delta-T
°C
Wind Press
QNH
hPa
Press
MSL
hPa
Rain since
9am
mm
Dir  Spd
km/h
Gust
km/h
Spd
kts
Gust
kts
23/11:30pm 15.4 10.0 7.9 61 3.8 NNE 26 35 14 19 999.5 999.4 0.0
23/11:00pm 14.8 10.5 7.1 60 3.8 N 19 26 10 14 1000.1 1000.0 0.0
23/10:30pm 14.5 10.0 6.8 60 3.7 N 20 32 11 17 1000.4 1000.3 0.0
23/10:00pm 10.5 7.6 4.9 68 2.5 N 9 13 5 7 1000.9 1000.8 0.0
23/09:30pm 11.6 8.2 5.7 67 2.7 N 13 17 7 9 1001.0 1000.9 0.0
23/09:00pm 10.7 6.4 5.3 69 2.5 NNE 17 20 9 11 1001.2 1001.1 0.0
23/08:30pm 12.4 8.1 5.3 62 3.3 N 17 20 9 11 1001.7 1001.7 0.0
23/08:00pm 13.6 9.8 5.7 59 3.7 NNW 15 22 8 12 1001.9 1001.9 0.0

Other Formats:

Comma delimited format used in spreadsheet applications
http://www.bom.gov.au/fwo/IDN60801/IDN60801.95937.axf

JavaScript Object Notation format (JSON) in row-major order
http://www.bom.gov.au/fwo/IDN60801/IDN60801.95937.json